Bishops Head, MD NWLON current weather conditions

sailwx.info

Wind from 196 at 1 knots gusting 2

Air temperature 5.0° C
Water temperature 7.2° C

Last reported at 2015-Mar-29 22:36 UTC.
Time now 2015-Mar-29 23:48 UTC

Location: N 38°13' W 076°02'.
View on Google Maps.

See reports from other nearby stations

  
Tides and Currents Weather Stations Pressure Air Temp Water Temp Dewpoint Dewpoint Depression Visibility Wind Speed Wind Dir Waves Ship Positions
date/time (UTC)wind fromknots sea level pressurealtimeterstation pressurevisibilityair tempwater tempwave heightnotes
2015-Mar-29 22:36 196 1 gusting 2 5.0 7.2
2015-Mar-29 22:30 211 1 gusting 1 5.6 7.2
2015-Mar-29 22:24 249 1 gusting 3 5.0 7.2
2015-Mar-29 22:18 245 2 gusting 3 5.0 7.2
2015-Mar-29 22:12 247 2 gusting 4 4.4 7.8
2015-Mar-29 22:06 231 3 gusting 4 5.0 7.8
2015-Mar-29 22:00 249 2 gusting 3 5.0 7.8
2015-Mar-29 21:48 228 2 gusting 3 5.0 7.8
2015-Mar-29 21:30 235 3 gusting 5 4.4 8.3
2015-Mar-29 21:24 233 4 gusting 4 4.4 8.3
2015-Mar-29 21:18 240 4 gusting 4 3.9 8.3
2015-Mar-29 21:12 238 3 gusting 5 3.9 8.3
2015-Mar-29 21:06 232 4 gusting 5 3.9 7.8
2015-Mar-29 21:00 230 4 gusting 5 3.9 7.8
2015-Mar-29 20:54 242 3 gusting 6 3.3 7.8
2015-Mar-29 20:30 238 6 gusting 11 2.8 7.2
2015-Mar-29 20:24 235 9 gusting 11 2.8 6.7
2015-Mar-29 20:18 247 6 gusting 9 2.8 6.1
2015-Mar-29 20:12 240 9 gusting 10 2.8 6.1
2015-Mar-29 20:06 254 7 gusting 8 2.8 6.1
2015-Mar-29 20:00 249 7 gusting 9 2.8 6.1
2015-Mar-29 19:54 254 7 gusting 7 2.8 6.1
2015-Mar-29 19:48 268 6 gusting 10 2.8 6.1
2015-Mar-29 19:36 264 9 gusting 12 2.8 6.1
2015-Mar-29 19:30 266 9 gusting 13 2.8 5.6
2015-Mar-29 19:18 289 11 gusting 14 3.3 5.6
2015-Mar-29 19:12 289 12 gusting 13 2.8 5.6
2015-Mar-29 19:06 286 11 gusting 14 2.8 5.6
2015-Mar-29 19:00 288 13 gusting 15 2.8 5.0
2015-Mar-29 18:54 283 11 gusting 13 2.8 5.0
2015-Mar-29 18:48 279 11 gusting 13 2.2 5.0
2015-Mar-29 18:36 283 12 gusting 13 2.2 5.0
2015-Mar-29 18:30 279 11 gusting 13 2.2 4.4
2015-Mar-29 18:24 273 11 gusting 13 2.2 4.4
2015-Mar-29 18:18 267 10 gusting 13 2.2 4.4
2015-Mar-29 18:12 278 9 gusting 13 1.7 4.4
2015-Mar-29 18:00 290 13 gusting 15 1.7 3.9
2015-Mar-29 17:54 289 13 gusting 15 1.7 3.9
2015-Mar-29 17:48 292 13 gusting 19 1.7 4.4
2015-Mar-29 17:36 296 14 gusting 19 1.7 3.9
2015-Mar-29 17:30 300 14 gusting 18 2.2 3.9
2015-Mar-29 17:24 300 14 gusting 19 1.7 3.9
2015-Mar-29 17:06 292 16 gusting 19 1.1 3.9
2015-Mar-29 17:00 296 18 gusting 22 1.7 3.9
2015-Mar-29 16:54 300 17 gusting 19 1.1 3.9
2015-Mar-29 16:48 294 17 gusting 19 1.1 3.9
2015-Mar-29 16:36 312 14 gusting 19 1.1 3.9
2015-Mar-29 16:30 301 17 gusting 19 1.1 3.3
2015-Mar-29 16:18 299 15 gusting 19 0.6 3.3
2015-Mar-29 16:12 301 18 gusting 20 0.6 3.3
2015-Mar-29 16:06 295 17 gusting 19 0.6 3.3
2015-Mar-29 16:00 295 15 gusting 18 0.6 3.3
2015-Mar-29 15:54 316 11 gusting 18 1.1 3.3
2015-Mar-29 15:48 308 16 gusting 18 0.6 3.3
2015-Mar-29 15:36 293 15 gusting 18 2.8
2015-Mar-29 15:30 309 12 gusting 18 0.6 2.8
2015-Mar-29 15:24 315 13 gusting 17 0.6 2.8
2015-Mar-29 15:18 331 13 gusting 18 0.6 2.8
2015-Mar-29 15:12 323 13 gusting 18 2.2
2015-Mar-29 15:06 299 13 gusting 19 -0.0 2.2
2015-Mar-29 15:00 317 13 gusting 16 0.6 2.2
2015-Mar-29 14:54 325 13 gusting 16 0.6 2.2
2015-Mar-29 14:48 341 9 gusting 15 0.6 2.2
2015-Mar-29 14:42 331 13 gusting 19 0.6 2.2
2015-Mar-29 14:30 338 14 gusting 18 0.6 2.2
2015-Mar-29 14:24 332 10 gusting 14 -0.0 2.2
2015-Mar-29 14:18 343 13 gusting 15 1.7
2015-Mar-29 14:12 357 7 gusting 17 1.7
2015-Mar-29 14:00 340 14 gusting 18 -0.6 1.7
2015-Mar-29 13:54 346 11 gusting 15 1.7
2015-Mar-29 13:48 345 10 gusting 18 1.7
2015-Mar-29 13:36 334 11 gusting 17 1.7
2015-Mar-29 13:30 327 14 gusting 18 1.7
2015-Mar-29 13:24 325 12 gusting 17 -0.6 1.7
2015-Mar-29 13:18 332 12 gusting 19 1.7
2015-Mar-29 13:12 318 14 gusting 21 1.7
2015-Mar-29 13:06 337 14 gusting 18
2015-Mar-29 13:00 335 13 gusting 18 -1.1 1.7
2015-Mar-29 12:48 328 10 gusting 17
2015-Mar-29 12:30 316 15 gusting 19
2015-Mar-29 12:24 327 15 gusting 22
2015-Mar-29 12:18 330 15 gusting 19
2015-Mar-29 12:12 326 13 gusting 16
2015-Mar-29 12:06 328 12 gusting 16
2015-Mar-29 12:00 321 13 gusting 17
2015-Mar-29 11:54 326 12 gusting 14
2015-Mar-29 11:48 321 11 gusting 16
2015-Mar-29 11:36 322 13 gusting 16
2015-Mar-29 11:30 324 11 gusting 14
2015-Mar-29 11:24 325 10 gusting 12
2015-Mar-29 11:18 328 10 gusting 12
2015-Mar-29 11:12 331 9 gusting 15
2015-Mar-29 11:06 326 11 gusting 13
2015-Mar-29 11:00 329 10 gusting 14
2015-Mar-29 10:54 331 10 gusting 12
2015-Mar-29 10:48 329 11 gusting 14
2015-Mar-29 10:36 327 10 gusting 15
2015-Mar-29 10:30 326 12 gusting 14
2015-Mar-29 10:24 325 11 gusting 13
2015-Mar-29 10:18 328 9 gusting 13
2015-Mar-29 10:12 332 11 gusting 13
2015-Mar-29 10:06 329 11 gusting 13
2015-Mar-29 10:00 325 11 gusting 17
2015-Mar-29 09:54 321 13 gusting 15
2015-Mar-29 09:48 326 11 gusting 17
2015-Mar-29 09:36 323 12 gusting 15
2015-Mar-29 09:30 324 11 gusting 13
2015-Mar-29 09:24 324 10 gusting 13
2015-Mar-29 09:18 325 9 gusting 11
2015-Mar-29 09:12 324 8 gusting 11
2015-Mar-29 09:06 323 9 gusting 12
2015-Mar-29 09:00 326 10 gusting 13
2015-Mar-29 08:54 327 9 gusting 11
2015-Mar-29 08:48 326 9 gusting 12
2015-Mar-29 08:36 327 9 gusting 13
2015-Mar-29 08:30 328 11 gusting 14
2015-Mar-29 08:24 323 13 gusting 14
2015-Mar-29 08:18 325 11 gusting 17
2015-Mar-29 08:12 327 13 gusting 18
2015-Mar-29 08:06 330 11 gusting 16
2015-Mar-29 08:00 327 13 gusting 17
2015-Mar-29 07:54 330 11 gusting 15
2015-Mar-29 07:48 330 11 gusting 15
2015-Mar-29 07:42 325 12 gusting 17
2015-Mar-29 07:36 327 11 gusting 16
2015-Mar-29 07:30 329 11 gusting 16
2015-Mar-29 07:24 327 12 gusting 18
2015-Mar-29 07:18 326 13 gusting 17
2015-Mar-29 07:12 325 15 gusting 18
2015-Mar-29 07:06 330 13 gusting 19
2015-Mar-29 07:00 328 13 gusting 15
2015-Mar-29 06:54 324 14 gusting 18
2015-Mar-29 06:48 323 13 gusting 21
2015-Mar-29 06:36 331 14 gusting 21
2015-Mar-29 06:30 325 14 gusting 21
2015-Mar-29 06:24 327 16 gusting 23
2015-Mar-29 06:06 325 16 gusting 20
2015-Mar-29 06:00 329 18 gusting 22
2015-Mar-29 05:54 325 13 gusting 18
2015-Mar-29 05:48 327 13 gusting 23
2015-Mar-29 05:30 316 18 gusting 24
2015-Mar-29 05:24 318 19 gusting 25
2015-Mar-29 05:18 321 18 gusting 22
2015-Mar-29 05:12 312 18 gusting 23
2015-Mar-29 05:06 314 19 gusting 24
2015-Mar-29 05:00 308 16 gusting 24
2015-Mar-29 04:54 312 18 gusting 22
2015-Mar-29 04:48 316 17 gusting 22
2015-Mar-29 04:36 311 16 gusting 25
2015-Mar-29 04:30 315 18 gusting 20
2015-Mar-29 04:24 312 16 gusting 22
2015-Mar-29 04:18 310 18 gusting 21
2015-Mar-29 04:12 314 16 gusting 22
2015-Mar-29 03:54 324 9 gusting 19
2015-Mar-29 03:48 324 13 gusting 17
2015-Mar-29 03:36 322 19 gusting 23
2015-Mar-29 03:30 322 13 gusting 22
2015-Mar-29 03:24 316 16 gusting 18
2015-Mar-29 03:18 316 14 gusting 23
2015-Mar-29 03:12 312 16 gusting 20
2015-Mar-29 03:06 327 13 gusting 19
2015-Mar-29 03:00 328 13 gusting 18
2015-Mar-29 02:54 330 13 gusting 19
2015-Mar-29 02:48 331 13 gusting 20
2015-Mar-29 02:36 326 15 gusting 21
2015-Mar-29 02:30 334 13 gusting 20
2015-Mar-29 02:24 329 15 gusting 19
2015-Mar-29 02:18 330 13 gusting 19
2015-Mar-29 02:12 335 14 gusting 20
2015-Mar-29 02:06 327 16 gusting 23
2015-Mar-29 02:00 328 16 gusting 19
2015-Mar-29 01:54 327 13 gusting 22
2015-Mar-29 01:48 323 19 gusting 22
2015-Mar-29 01:36 329 18 gusting 23
2015-Mar-29 01:30 329 18 gusting 23
2015-Mar-29 01:24 327 18 gusting 22
2015-Mar-29 01:18 331 17 gusting 21
2015-Mar-29 01:12 334 15 gusting 21
2015-Mar-29 01:06 334 16 gusting 19
2015-Mar-29 01:00 339 9 gusting 14
2015-Mar-29 00:54 340 13 gusting 23
2015-Mar-29 00:48 326 18 gusting 22
2015-Mar-29 00:36 322 13 gusting 24
2015-Mar-29 00:30 330 14 gusting 19
2015-Mar-29 00:24 324 10 gusting 13
2015-Mar-29 00:18 335 12 gusting 18
2015-Mar-29 00:12 322 14 gusting 20
2015-Mar-29 00:06 309 17 gusting 22
2015-Mar-29 00:00 311 17 gusting 19
2015-Mar-28 23:48 333 9 gusting 13
2015-Mar-28 23:36 313 18 gusting 19
2015-Mar-28 23:30 324 13 gusting 19
2015-Mar-28 23:24 314 19 gusting 19
2015-Mar-28 23:18 314 19 gusting 19
2015-Mar-28 23:12 319 15 gusting 17
2015-Mar-28 23:06 309 16 gusting 21
2015-Mar-28 22:48 316 18 gusting 19
2015-Mar-28 22:36 312 18 gusting 19
2015-Mar-28 22:30 303 19 gusting 21
2015-Mar-28 22:24 301 18 gusting 19
2015-Mar-28 22:18 322 18 gusting 22
2015-Mar-28 22:12 322 18 gusting 22
2015-Mar-28 22:06 308 17 gusting 19
2015-Mar-28 21:48 307 20 gusting 22
2015-Mar-28 21:36 310 15 gusting 26
2015-Mar-28 21:30 308 22 gusting 26
2015-Mar-28 21:24 325 16 gusting 26
2015-Mar-28 21:18 325 16 gusting 26
2015-Mar-28 21:12 318 19 gusting 20
2015-Mar-28 21:06 329 19 gusting 19
2015-Mar-28 21:00 324 18 gusting 24
2015-Mar-28 20:54 316 18 gusting 20
2015-Mar-28 20:48 320 18 gusting 22
2015-Mar-28 20:36 322 16 gusting 22
2015-Mar-28 20:30 325 18 gusting 19
2015-Mar-28 20:24 333 16 gusting 19
2015-Mar-28 20:18 314 19 gusting 21
2015-Mar-28 20:12 321 19 gusting 21
2015-Mar-28 19:48 323 13 gusting 22
2015-Mar-28 19:36 306 15 gusting 18
2015-Mar-28 19:30 302 16 gusting 22
2015-Mar-28 19:24 293 16 gusting 22
2015-Mar-28 19:18 318 18 gusting 19
2015-Mar-28 19:12 314 17 gusting 19
2015-Mar-28 18:54 300 17 gusting 22
2015-Mar-28 18:48 303 16 gusting 18
2015-Mar-28 18:36 312 15 gusting 22
2015-Mar-28 18:30 301 16 gusting 19
2015-Mar-28 18:24 307 14 gusting 20
2015-Mar-28 18:18 313 15 gusting 21
2015-Mar-28 18:12 303 19 gusting 21
2015-Mar-28 17:54 321 17 gusting 19
2015-Mar-28 17:48 310 19 gusting 19
2015-Mar-28 17:36 306 16 gusting 23
2015-Mar-28 17:30 315 19 gusting 23
2015-Mar-28 17:24 304 19 gusting 19
2015-Mar-28 17:18 316 16 gusting 21 1.7 6.7
2015-Mar-28 17:12 314 18 gusting 22
2015-Mar-28 17:06 316 15 gusting 22
2015-Mar-28 16:54 317 16 gusting 22
2015-Mar-28 16:48 322 21 gusting 22
2015-Mar-28 16:36 307 19 gusting 22
2015-Mar-28 16:30 307 19 gusting 22
2015-Mar-28 16:24 316 16 gusting 22
2015-Mar-28 16:18 312 18 gusting 22
2015-Mar-28 16:12 313 20 gusting 25
2015-Mar-28 15:54 304 22 gusting 24
2015-Mar-28 15:48 301 20 gusting 23 1.7 6.1
2015-Mar-28 15:36 300 23 gusting 26
2015-Mar-28 15:30 313 21 gusting 26
2015-Mar-28 15:24 305 22 gusting 29 1.7 6.1
2015-Mar-28 15:18 305 22 gusting 29 1.7 6.1
2015-Mar-28 15:12 312 24 gusting 29 1.7 6.1
2015-Mar-28 14:54 321 24 gusting 28
2015-Mar-28 14:48 316 24 gusting 26 -0.0-0.0
2015-Mar-28 14:30 320 22 gusting 28 1.7 5.6
2015-Mar-28 14:24 322 23 gusting 27 1.7 5.6
2015-Mar-28 14:18 321 26 gusting 29 1.1 5.6
2015-Mar-28 14:12 321 22 gusting 27 1.1 5.6
2015-Mar-28 14:06 314 26 gusting 26
2015-Mar-28 14:00 319 23 gusting 26 -0.0-0.0
2015-Mar-28 13:54 319 23 gusting 26 1.1 6.1
2015-Mar-28 13:48 313 23 gusting 27 1.1 6.1
2015-Mar-28 13:36 308 22 gusting 28 1.1 6.1
2015-Mar-28 13:30 310 26 gusting 28 1.7 6.1
2015-Mar-28 13:24 304 23 gusting 26 1.7 6.1
2015-Mar-28 13:18 311 21 gusting 27 1.7 6.1
2015-Mar-28 13:12 306 24 gusting 26 1.7 6.1
2015-Mar-28 12:54 305 25 gusting 26 -0.0-0.0
2015-Mar-28 12:48 313 24 gusting 26
2015-Mar-28 12:36 323 21 gusting 26
2015-Mar-28 12:30 320 22 gusting 27 -0.0-0.0
2015-Mar-28 12:24 320 22 gusting 27 -0.0-0.0
2015-Mar-28 12:18 308 25 gusting 26
2015-Mar-28 12:12 316 19 gusting 25 2.2 6.1
2015-Mar-28 11:54 322 18 gusting 26 2.2 6.1
2015-Mar-28 11:48 325 13 gusting 20 2.2 6.1
2015-Mar-28 11:36 323 16 gusting 20 2.2 6.1
2015-Mar-28 11:30 325 17 gusting 21 2.2 6.1
2015-Mar-28 11:24 323 14 gusting 19 2.2 6.1
2015-Mar-28 11:18 320 16 gusting 19 2.2 6.1
2015-Mar-28 11:12 328 14 gusting 18 1.7 6.7
2015-Mar-28 11:06 324 14 gusting 18 1.7 6.7
2015-Mar-28 11:00 320 14 gusting 16 1.7 6.7
2015-Mar-28 10:54 324 13 gusting 17 1.7 6.7
2015-Mar-28 10:48 327 13 gusting 19 2.2 6.7
2015-Mar-28 10:36 322 13 gusting 14 2.2 6.7
2015-Mar-28 10:30 327 11 gusting 18 2.2 6.7
2015-Mar-28 10:24 322 13 gusting 17 2.2 6.7
2015-Mar-28 10:18 328 15 gusting 21 2.2 6.7
2015-Mar-28 10:12 329 16 gusting 19 2.2 6.7
2015-Mar-28 10:06 328 15 gusting 22 2.2 6.7
2015-Mar-28 10:00 328 14 gusting 21 2.2 6.7
2015-Mar-28 09:54 330 17 gusting 21 2.2 6.7
2015-Mar-28 09:48 327 17 gusting 23 2.2 6.7
2015-Mar-28 09:36 330 15 gusting 23 2.8 6.7
2015-Mar-28 09:30 327 19 gusting 25 2.8 6.7
2015-Mar-28 09:24 326 13 gusting 21 2.8 6.7
2015-Mar-28 09:18 328 16 gusting 23 2.8 6.7
2015-Mar-28 09:12 328 13 gusting 19 2.8 6.7
2015-Mar-28 09:06 328 14 gusting 19 3.3 6.7
2015-Mar-28 09:00 331 13 gusting 20 3.3 6.7
2015-Mar-28 08:54 327 14 gusting 19 3.3 6.7
2015-Mar-28 08:48 327 13 gusting 16 3.3 6.7
2015-Mar-28 08:36 342 14 gusting 19 3.9 6.7
2015-Mar-28 08:30 333 12 gusting 16 3.9 6.7
2015-Mar-28 08:24 337 13 gusting 17 3.9 6.7
2015-Mar-28 08:18 335 13 gusting 16 3.9 6.7
2015-Mar-28 08:12 333 12 gusting 17 3.9 6.7
2015-Mar-28 08:06 332 13 gusting 15 3.9 6.7
2015-Mar-28 08:00 335 13 gusting 19 3.9 6.7
2015-Mar-28 07:54 339 14 gusting 18 4.4 6.7
2015-Mar-28 07:48 339 13 gusting 18 4.4 7.2
2015-Mar-28 07:36 339 12 gusting 16 4.4 7.2
2015-Mar-28 07:30 331 11 gusting 13 4.4 7.2
2015-Mar-28 07:24 330 9 gusting 12 4.4 7.2
2015-Mar-28 07:18 330 8 gusting 12 4.4 7.8
2015-Mar-28 07:12 335 8 gusting 13 4.4 7.8
2015-Mar-28 07:00 338 11 gusting 14 4.4 7.8
2015-Mar-28 06:54 333 10 gusting 13 4.4 7.8
2015-Mar-28 06:00 340 8 gusting 12 5.0 7.8
2015-Mar-28 05:48 340 7 gusting 12 5.0 7.8
2015-Mar-28 05:36 339 8 gusting 12 5.0 7.8
2015-Mar-28 05:30 343 7 gusting 11 5.0 7.8
2015-Mar-28 05:24 342 7 gusting 11 5.0 7.8
2015-Mar-28 05:18 343 8 gusting 11 5.6 7.8
2015-Mar-28 05:12 343 7 gusting 12 5.6 7.8
2015-Mar-28 05:06 336 8 gusting 11 5.0 7.8
2015-Mar-28 05:00 329 7 gusting 10 5.0 7.8
2015-Mar-28 04:54 327 8 gusting 11 5.6 7.8
2015-Mar-28 04:48 329 8 gusting 11 5.6 7.8
2015-Mar-28 04:30 328 8 gusting 11 5.6 7.8
2015-Mar-28 04:24 320 7 gusting 9 5.6 7.8
2015-Mar-28 04:18 324 6 gusting 9 5.6 7.8
2015-Mar-28 04:12 314 7 gusting 8 5.6 7.8
2015-Mar-28 04:06 310 7 gusting 9 5.6 7.8
2015-Mar-28 04:00 312 7 gusting 9 5.6 7.8
2015-Mar-28 03:54 308 7 gusting 9 5.6 7.8
2015-Mar-28 03:48 310 7 gusting 9 5.6 7.8
2015-Mar-28 03:36 305 8 gusting 9 5.6 7.8
2015-Mar-28 03:30 315 7 gusting 9 5.6 7.8
2015-Mar-28 03:24 308 7 gusting 11 5.6 7.8
2015-Mar-28 03:06 309 8 gusting 10 5.6 8.3
2015-Mar-28 03:00 301 9 gusting 11 5.6 7.8
2015-Mar-28 02:54 297 9 gusting 10 5.6 7.8
2015-Mar-28 02:48 297 8 gusting 10 5.6 8.3
2015-Mar-28 02:36 300 8 gusting 10 5.6 8.3
2015-Mar-28 02:30 290 9 gusting 10 5.6 8.3
2015-Mar-28 02:24 287 8 gusting 9 5.6 8.3
2015-Mar-28 02:18 297 8 gusting 9 5.6 8.3
2015-Mar-28 02:12 289 8 gusting 10 5.0 8.3
2015-Mar-28 02:06 299 7 gusting 9 5.0 8.3
2015-Mar-28 02:00 284 7 gusting 8 5.0 8.3
2015-Mar-28 01:48 272 6 gusting 7 5.0 8.3
2015-Mar-28 01:36 273 6 gusting 7 5.0 8.3
2015-Mar-28 01:30 274 6 gusting 6 5.0 8.3
2015-Mar-28 01:24 271 6 gusting 7 5.0 8.3
2015-Mar-28 01:18 269 6 gusting 6 5.0 8.3
2015-Mar-28 01:12 267 5 gusting 6 5.0 8.3
2015-Mar-28 01:06 313 2 gusting 3 5.0 8.3
2015-Mar-28 01:00 328 2 gusting 3 5.0 8.3
2015-Mar-28 00:54 328 2 gusting 2 5.0 8.3
2015-Mar-28 00:48 330 1 gusting 2 5.0 8.3
2015-Mar-28 00:36 314 2 gusting 3 5.0 8.9
2015-Mar-28 00:18 329 2 gusting 5 5.0 8.9
2015-Mar-28 00:12 325 4 gusting 5 5.0 8.9
2015-Mar-28 00:06 321 4 gusting 5 4.4 8.9
2015-Mar-28 00:00 310 4 gusting 5 5.0 8.9
2015-Mar-27 23:36 321 3 gusting 3 4.4 8.9
2015-Mar-27 23:30 326 1 gusting 3 4.4 8.9
2015-Mar-27 23:24 334 2 gusting 3 4.4 8.9
2015-Mar-27 23:18 343 2 gusting 3 4.4 8.9
2015-Mar-27 23:12 350 2 gusting 4 5.0 8.9
2015-Mar-27 23:06 359 1 gusting 3 5.0 8.9
2015-Mar-27 23:00 017 0 gusting 3 5.0 8.9